createdAt,value
2024-03-22T00:02:40.413Z,20.70
2024-03-22T00:06:04.212Z,20.90
2024-03-22T00:09:27.745Z,20.20
2024-03-22T00:12:51.906Z,22.40
2024-03-22T00:16:15.410Z,20.90
2024-03-22T00:19:38.904Z,20.50
2024-03-22T00:23:02.558Z,19.10
2024-03-22T00:26:26.389Z,18.70
2024-03-22T00:29:50.316Z,20.80
2024-03-22T00:33:13.883Z,20.60
2024-03-22T00:36:37.800Z,20.70
2024-03-22T00:40:01.376Z,20.00
2024-03-22T00:43:24.953Z,20.80
2024-03-22T00:46:48.561Z,20.50
2024-03-22T00:50:12.126Z,20.30
2024-03-22T00:53:35.717Z,21.00
2024-03-22T00:56:59.155Z,22.10
2024-03-22T01:00:22.885Z,22.30
2024-03-22T01:03:46.343Z,20.50
2024-03-22T01:07:10.006Z,21.10
2024-03-22T01:10:35.496Z,20.10
2024-03-22T01:13:59.067Z,22.80
2024-03-22T01:17:22.597Z,21.80
2024-03-22T01:20:46.240Z,23.40
2024-03-22T01:24:09.906Z,21.10
2024-03-22T01:27:33.627Z,22.40
2024-03-22T01:30:57.137Z,19.40
2024-03-22T01:34:20.566Z,19.10
2024-03-22T01:37:44.053Z,20.30
2024-03-22T01:41:08.180Z,19.20
2024-03-22T01:44:34.075Z,19.60
2024-03-22T01:47:57.765Z,20.50
2024-03-22T01:51:21.384Z,19.60
2024-03-22T01:54:44.960Z,21.40
2024-03-22T01:58:08.685Z,23.30
2024-03-22T02:01:32.587Z,24.40
2024-03-22T02:04:56.295Z,22.00
2024-03-22T02:08:19.751Z,21.60
2024-03-22T02:11:44.794Z,21.40
2024-03-22T02:15:09.400Z,22.10
2024-03-22T02:18:32.953Z,20.70
2024-03-22T02:21:56.508Z,21.90
2024-03-22T02:25:20.111Z,22.70
2024-03-22T02:28:43.622Z,21.90
2024-03-22T02:32:07.732Z,22.10
2024-03-22T02:35:31.191Z,21.90
2024-03-22T02:38:54.635Z,21.80
2024-03-22T02:42:18.105Z,23.40
2024-03-22T02:45:41.811Z,24.10
2024-03-22T02:49:05.280Z,23.50
2024-03-22T02:52:28.780Z,23.00
2024-03-22T02:55:52.315Z,24.40
2024-03-22T02:59:15.858Z,22.90
2024-03-22T03:02:39.466Z,22.00
2024-03-22T03:06:04.322Z,22.00
2024-03-22T03:12:52.218Z,23.50
2024-03-22T03:16:15.648Z,21.20
2024-03-22T03:19:39.081Z,23.90
2024-03-22T03:23:03.100Z,23.50
2024-03-22T03:26:26.590Z,24.70
2024-03-22T03:29:50.068Z,22.40
2024-03-22T03:33:13.577Z,22.30
2024-03-22T03:36:37.004Z,25.30
2024-03-22T03:40:00.531Z,24.10
2024-03-22T03:43:24.242Z,25.00
2024-03-22T03:46:47.687Z,24.60
2024-03-22T03:50:11.533Z,23.90
2024-03-22T03:53:35.036Z,23.70
2024-03-22T03:56:58.635Z,24.50
2024-03-22T04:00:22.625Z,23.10
2024-03-22T04:03:46.225Z,25.30
2024-03-22T04:07:09.713Z,24.10
2024-03-22T04:10:33.430Z,24.90
2024-03-22T04:13:56.913Z,25.60
2024-03-22T04:17:20.552Z,24.20
2024-03-22T04:20:44.845Z,27.30
2024-03-22T04:24:09.435Z,24.90
2024-03-22T04:27:32.910Z,24.80
2024-03-22T04:31:07.289Z,25.90
2024-03-22T04:34:30.792Z,25.40
2024-03-22T04:37:54.273Z,26.70
2024-03-22T04:41:17.767Z,26.00
2024-03-22T04:44:41.568Z,26.20
2024-03-22T04:48:06.415Z,27.20
2024-03-22T04:51:30.029Z,26.70
2024-03-22T04:54:53.540Z,27.40
2024-03-22T04:58:18.594Z,27.70
2024-03-22T05:01:42.180Z,27.00
2024-03-22T05:05:06.084Z,25.70
2024-03-22T05:08:29.601Z,25.80
2024-03-22T05:11:53.275Z,26.60
2024-03-22T05:15:16.823Z,26.10
2024-03-22T05:18:40.995Z,28.00
2024-03-22T05:22:04.523Z,27.20
2024-03-22T05:25:29.746Z,29.40
2024-03-22T05:28:53.626Z,28.40
2024-03-22T05:32:17.248Z,28.70
2024-03-22T05:35:40.820Z,29.90
2024-03-22T05:39:04.458Z,30.50
2024-03-22T05:42:30.665Z,32.00
2024-03-22T05:45:55.168Z,30.70
2024-03-22T05:49:18.660Z,32.00
2024-03-22T05:52:42.429Z,36.60
2024-03-22T05:56:06.306Z,34.70
2024-03-22T05:59:29.874Z,32.10
2024-03-22T06:02:53.368Z,29.70
2024-03-22T06:06:17.373Z,33.20
2024-03-22T06:09:46.855Z,32.90
2024-03-22T06:13:10.348Z,33.40
2024-03-22T06:16:33.859Z,32.30
2024-03-22T06:19:57.411Z,31.40
2024-03-22T06:23:21.435Z,31.80
2024-03-22T06:26:46.103Z,33.50
2024-03-22T06:30:10.319Z,34.00
2024-03-22T06:33:34.348Z,32.70
2024-03-22T06:36:58.329Z,30.80
2024-03-22T06:40:21.789Z,33.20
2024-03-22T06:43:45.276Z,31.40
2024-03-22T06:47:08.780Z,30.70
2024-03-22T06:50:32.345Z,33.50
2024-03-22T06:53:55.849Z,34.40
2024-03-22T06:57:19.343Z,35.40
2024-03-22T07:00:42.920Z,35.20
2024-03-22T07:04:06.419Z,35.60
2024-03-22T07:07:30.395Z,35.60
2024-03-22T07:10:54.112Z,34.10
2024-03-22T07:14:17.634Z,33.20
2024-03-22T07:17:41.175Z,33.10
2024-03-22T07:21:05.029Z,32.30
2024-03-22T07:24:28.761Z,32.20
2024-03-22T07:27:52.740Z,31.20
2024-03-22T07:31:16.319Z,32.10
2024-03-22T07:34:39.870Z,31.00
2024-03-22T07:38:03.367Z,31.40
2024-03-22T07:41:28.993Z,32.00
2024-03-22T07:44:53.407Z,30.30
2024-03-22T07:48:17.224Z,31.40
2024-03-22T07:51:40.865Z,33.80
2024-03-22T07:55:04.581Z,34.60
2024-03-22T07:58:28.070Z,31.70
2024-03-22T08:01:51.608Z,32.00
2024-03-22T08:05:15.124Z,31.40
2024-03-22T08:08:38.753Z,37.60
2024-03-22T08:12:02.540Z,37.40
2024-03-22T08:15:27.670Z,35.10
2024-03-22T08:18:52.942Z,34.10
2024-03-22T08:22:16.524Z,32.00
2024-03-22T08:25:40.298Z,32.10
2024-03-22T08:29:03.841Z,28.80
2024-03-22T08:32:27.291Z,29.70
2024-03-22T08:35:50.824Z,29.70
2024-03-22T08:39:14.308Z,27.80
2024-03-22T08:42:38.236Z,31.40
2024-03-22T08:46:01.710Z,29.50
2024-03-22T08:49:25.275Z,29.50
2024-03-22T08:52:48.825Z,27.50
2024-03-22T08:56:12.921Z,27.30
2024-03-22T08:59:36.404Z,26.90
2024-03-22T09:03:00.018Z,28.70
2024-03-22T09:06:23.798Z,27.80
2024-03-22T09:09:47.353Z,28.70
2024-03-22T09:13:13.707Z,29.80
2024-03-22T09:16:37.219Z,28.30
2024-03-22T09:20:00.934Z,29.60
2024-03-22T09:23:24.997Z,27.10
2024-03-22T09:26:48.461Z,27.60
2024-03-22T09:30:12.404Z,27.50
2024-03-22T09:33:36.576Z,29.70
2024-03-22T09:37:00.199Z,29.10
2024-03-22T09:40:23.922Z,28.70
2024-03-22T09:43:51.344Z,26.80
2024-03-22T09:47:19.334Z,28.10
2024-03-22T09:50:43.360Z,27.30
2024-03-22T09:54:07.873Z,27.00
2024-03-22T09:57:31.576Z,27.40
2024-03-22T10:01:01.505Z,26.70
2024-03-22T10:04:25.169Z,27.10
2024-03-22T10:07:49.516Z,22.60
2024-03-22T10:11:13.437Z,19.90
2024-03-22T10:14:37.960Z,18.60
2024-03-22T10:18:01.714Z,18.50
2024-03-22T10:21:25.217Z,17.20
2024-03-22T10:24:49.018Z,18.20
2024-03-22T10:28:14.470Z,16.60
2024-03-22T10:35:01.861Z,14.30
2024-03-22T10:38:25.858Z,14.40
2024-03-22T10:41:50.200Z,11.90
2024-03-22T10:45:14.757Z,11.60
2024-03-22T10:48:39.785Z,10.60
2024-03-22T10:52:04.596Z,11.90
2024-03-22T10:55:31.743Z,11.50
2024-03-22T10:58:55.258Z,10.00
2024-03-22T11:02:19.207Z,9.70
2024-03-22T11:05:49.633Z,7.70
2024-03-22T11:09:13.042Z,8.30
2024-03-22T11:12:39.666Z,7.50
2024-03-22T11:16:03.229Z,6.60
2024-03-22T11:19:26.674Z,7.70
2024-03-22T11:22:50.460Z,7.90
2024-03-22T11:26:14.294Z,7.80
2024-03-22T11:29:39.934Z,8.60
2024-03-22T11:36:27.206Z,8.40
2024-03-22T11:39:51.528Z,9.80
2024-03-22T11:43:17.886Z,9.30
2024-03-22T11:46:41.806Z,9.40
2024-03-22T11:50:06.055Z,9.10
2024-03-22T11:53:29.771Z,8.60
2024-03-22T11:56:53.497Z,9.90
2024-03-22T12:00:30.884Z,9.10
2024-03-22T12:04:03.189Z,9.10
2024-03-22T12:07:26.927Z,8.90
2024-03-22T12:10:50.374Z,8.30
2024-03-22T12:14:13.801Z,8.90
2024-03-22T12:17:38.526Z,8.30
2024-03-22T12:21:02.948Z,9.10
2024-03-22T12:24:26.814Z,8.70
2024-03-22T12:27:50.258Z,8.40
2024-03-22T12:31:13.932Z,8.80
2024-03-22T12:34:37.720Z,8.20
2024-03-22T12:38:01.184Z,8.30
2024-03-22T12:41:24.749Z,8.20
2024-03-22T12:44:48.237Z,9.30
2024-03-22T12:48:11.719Z,8.80
2024-03-22T12:51:36.826Z,8.70
2024-03-22T12:55:01.939Z,9.40
2024-03-22T12:58:25.493Z,9.70
2024-03-22T13:01:49.826Z,8.80
2024-03-22T13:05:14.041Z,9.90
2024-03-22T13:08:37.635Z,9.50
2024-03-22T13:12:01.689Z,9.60
2024-03-22T13:15:26.698Z,9.50
2024-03-22T13:18:50.148Z,9.80
2024-03-22T13:22:14.168Z,10.10
2024-03-22T13:25:38.425Z,15.80
2024-03-22T13:29:02.056Z,9.60
2024-03-22T13:32:25.611Z,9.50
2024-03-22T13:35:49.939Z,9.30
2024-03-22T13:39:16.782Z,8.60
2024-03-22T13:42:40.336Z,8.80
2024-03-22T13:46:03.886Z,9.40
2024-03-22T13:49:27.449Z,9.80
2024-03-22T13:52:51.191Z,9.90
2024-03-22T13:56:14.686Z,8.30
2024-03-22T13:59:38.203Z,8.70
2024-03-22T14:03:01.740Z,8.80
2024-03-22T14:06:25.434Z,8.90
2024-03-22T14:09:48.952Z,10.00
2024-03-22T14:13:12.577Z,9.50
2024-03-22T14:16:36.273Z,8.90
2024-03-22T14:20:00.034Z,9.60
2024-03-22T14:23:23.763Z,8.90
2024-03-22T14:26:47.308Z,8.80
2024-03-22T14:30:13.908Z,9.20
2024-03-22T14:33:40.218Z,8.50
2024-03-22T14:37:05.929Z,9.30
2024-03-22T14:40:32.283Z,9.80
2024-03-22T14:43:56.564Z,10.40
2024-03-22T14:47:20.916Z,10.70
2024-03-22T14:50:44.455Z,10.50
2024-03-22T14:54:07.994Z,9.60
2024-03-22T14:57:32.889Z,11.80
2024-03-22T15:00:57.870Z,11.00
2024-03-22T15:04:21.438Z,11.40
2024-03-22T15:07:44.989Z,10.90
2024-03-22T15:11:08.632Z,11.20
2024-03-22T15:14:32.792Z,11.20
2024-03-22T15:17:56.670Z,11.20
2024-03-22T15:21:21.180Z,11.40
2024-03-22T15:24:44.651Z,10.90
2024-03-22T15:28:08.887Z,12.00
2024-03-22T15:31:32.306Z,11.30
2024-03-22T15:34:55.911Z,11.70
2024-03-22T15:38:20.732Z,12.00
2024-03-22T15:41:44.173Z,13.00
2024-03-22T15:45:07.638Z,11.60
2024-03-22T15:48:31.514Z,10.90
2024-03-22T15:51:55.064Z,11.70
2024-03-22T15:55:18.602Z,11.30
2024-03-22T15:58:42.255Z,12.10
2024-03-22T16:02:12.666Z,11.70
2024-03-22T16:05:52.754Z,13.30
2024-03-22T16:09:16.985Z,13.30
2024-03-22T16:12:41.176Z,14.20
2024-03-22T16:16:04.991Z,13.50
2024-03-22T16:19:29.614Z,13.50
2024-03-22T16:22:53.936Z,14.80
2024-03-22T16:26:18.156Z,13.50
2024-03-22T16:29:41.815Z,14.80
2024-03-22T16:33:05.677Z,15.90
2024-03-22T16:36:29.347Z,18.00
2024-03-22T16:39:52.843Z,21.20
2024-03-22T16:43:16.426Z,20.90
2024-03-22T16:46:39.886Z,21.40
2024-03-22T16:50:03.370Z,22.90
2024-03-22T16:53:27.401Z,23.30
2024-03-22T16:56:52.154Z,23.10
2024-03-22T17:00:16.740Z,22.60
2024-03-22T17:03:40.247Z,21.70
2024-03-22T17:07:03.976Z,25.30
2024-03-22T17:10:27.597Z,26.90
2024-03-22T17:13:51.126Z,29.70
2024-03-22T17:17:14.844Z,31.00
2024-03-22T17:20:38.375Z,32.20
2024-03-22T17:24:01.975Z,29.60
2024-03-22T17:27:25.642Z,30.30
2024-03-22T17:30:49.124Z,32.50
2024-03-22T17:34:12.714Z,32.00
2024-03-22T17:37:37.032Z,30.60
2024-03-22T17:41:02.712Z,31.20
2024-03-22T17:44:27.029Z,31.40
2024-03-22T17:47:50.653Z,31.70
2024-03-22T17:51:14.889Z,31.90
2024-03-22T17:54:38.466Z,31.90
2024-03-22T17:58:02.064Z,34.00
2024-03-22T18:01:25.677Z,33.10
2024-03-22T18:04:49.157Z,34.00
2024-03-22T18:08:12.857Z,32.40
2024-03-22T18:11:36.400Z,31.00
2024-03-22T18:15:00.534Z,31.50
2024-03-22T18:18:24.185Z,29.50
2024-03-22T18:21:48.074Z,32.60
2024-03-22T18:25:11.532Z,31.60
2024-03-22T18:28:35.008Z,31.60
2024-03-22T18:31:58.622Z,32.30
2024-03-22T18:35:22.671Z,32.80
2024-03-22T18:38:46.138Z,32.90
2024-03-22T18:42:09.697Z,30.80
2024-03-22T18:45:33.357Z,31.50
2024-03-22T18:48:57.194Z,29.70
2024-03-22T18:52:22.301Z,30.60
2024-03-22T18:55:46.031Z,38.80
2024-03-22T18:59:13.940Z,31.80
2024-03-22T19:02:40.102Z,32.30
2024-03-22T19:06:04.434Z,30.30
2024-03-22T19:09:28.371Z,37.10
2024-03-22T19:12:53.594Z,28.20
2024-03-22T19:16:36.665Z,30.80
2024-03-22T19:20:33.645Z,23.60
2024-03-22T19:24:31.756Z,29.30
2024-03-22T19:28:29.703Z,23.80
2024-03-22T19:32:30.811Z,25.60
2024-03-22T19:36:32.617Z,23.60
2024-03-22T19:40:30.621Z,23.10
2024-03-22T19:44:27.605Z,17.60
2024-03-22T19:48:26.586Z,22.20
2024-03-22T19:52:24.643Z,21.90
2024-03-22T19:56:22.582Z,21.60
2024-03-22T20:00:20.653Z,23.80
2024-03-22T20:04:18.613Z,20.30
2024-03-22T20:08:16.584Z,23.70
2024-03-22T20:12:14.659Z,20.30
2024-03-22T20:16:12.599Z,26.60
2024-03-22T20:20:10.566Z,25.00
2024-03-22T20:24:09.615Z,25.10
2024-03-22T20:28:11.609Z,24.50
2024-03-22T20:32:09.617Z,25.20
2024-03-22T20:36:07.587Z,25.50
2024-03-22T20:40:05.590Z,24.60
2024-03-22T20:44:03.549Z,19.80
2024-03-22T20:48:01.537Z,18.30
2024-03-22T20:52:00.608Z,25.20
2024-03-22T20:55:58.605Z,24.40
2024-03-22T20:59:56.598Z,18.20
2024-03-22T21:03:53.519Z,23.40
2024-03-22T21:07:53.530Z,22.90
2024-03-22T21:11:50.527Z,19.00
2024-03-22T21:15:47.580Z,24.40
2024-03-22T21:19:44.543Z,19.80
2024-03-22T21:23:42.535Z,25.40
2024-03-22T21:27:40.559Z,20.20
2024-03-22T21:31:37.536Z,25.90
2024-03-22T21:35:35.588Z,24.80
2024-03-22T21:39:34.546Z,19.60
2024-03-22T21:43:32.840Z,25.60
2024-03-22T21:47:31.651Z,24.80
2024-03-22T21:51:31.506Z,20.40
2024-03-22T21:55:29.583Z,24.50
2024-03-22T21:59:27.518Z,26.10
2024-03-22T22:03:25.603Z,25.70
2024-03-22T22:07:24.726Z,27.50
2024-03-22T22:11:22.781Z,20.50
2024-03-22T22:15:20.644Z,28.80
2024-03-22T22:19:18.597Z,27.00
2024-03-22T22:23:16.445Z,22.90
2024-03-22T22:27:14.476Z,28.00
2024-03-22T22:31:12.440Z,27.50
2024-03-22T22:35:10.493Z,28.10
2024-03-22T22:39:08.400Z,28.50
2024-03-22T22:43:06.394Z,28.50
2024-03-22T22:47:04.427Z,24.20
2024-03-22T22:51:01.379Z,31.70
2024-03-22T22:54:59.387Z,31.50
2024-03-22T22:58:57.467Z,26.60
2024-03-22T23:02:55.380Z,31.90
2024-03-22T23:07:00.426Z,32.10
2024-03-22T23:10:57.401Z,30.90
2024-03-22T23:14:55.374Z,31.50
2024-03-22T23:18:53.377Z,31.60
2024-03-22T23:22:51.359Z,29.20
2024-03-22T23:26:49.380Z,24.70
2024-03-22T23:30:47.357Z,31.10
2024-03-22T23:34:45.376Z,29.70
2024-03-22T23:38:43.434Z,30.70
2024-03-22T23:42:41.346Z,30.10
2024-03-22T23:46:39.344Z,30.30
2024-03-22T23:50:36.321Z,29.60
2024-03-22T23:54:33.381Z,31.20
2024-03-22T23:58:31.379Z,29.70
